Hit Tracker is now ESPN Home Run Tracker! Hit Tracker founder Greg Rybarczyk is now collaborating with the ESPN Stats & Information Group to continue tracking all MLB home runs, and helping baseball fans know "How Far It Really Went!™" Please credit any information on this site to ESPN Stats & Information Group. For more information and analysis on home runs, please contact founder Greg Rybarczyk. E-Mail ESPN Home Run Tracker
Main Page | Ballparks | Park Overlays | Glossary | Highlight Homers | Feedback | Bio | 3 Types of HR's | AAA Home Run Derby Last Updated: August 29, 2016, 10:35 pm PST
If you want to know "How Far It Really Went!", then you've come to the right place! Welcome to the ESPN Home Run Tracker, where you can find accurate, transparently verifiable distances for every home run hit in MLB games. Please also check out the ESPN MLB Scoreboard throughout the 2016 season! Contact us at grybar@hittrackeronline.com.
Season:
Ballpark detail for Safeco Field
Ballpark # of Home Runs HR per game Avg.
True
Distance
Avg.
Speed
Off
Bat
Avg.
Std.
Dist.
Safeco Field 181 2.83 393.1 103 391.9

Scatter Plot of Home Runs Safeco Field
 Overlay Ballpark:
Without range rings   With range rings

2016 Season Home Runs for Safeco Field
Click headers to sort
Date Video Path Hitter Hitter
Team
 ^
Pitcher Pitcher
Team
INN Ballpark Type/
Luck
True
Dist.
Speed
Off
Bat
Elev.
Angle
Horiz.
Angle
Apex Impact Due To: Std.
Dist.
#
Parks
Wind Temp. Alt.
04/12/16 Video View Beltre, Adrian TEX Miley, Wade SEA 3 Safeco Field JE 359 102.8 25.2 123.2 61 0 -1 0 360 26
04/13/16 Video View DeShields, Delino TEX Peralta, Joel SEA 8 Safeco Field JE 354 98.3 26.7 116.9 64 2 -1 0 353 4
06/10/16 Video View Desmond, Ian TEX Iwakuma, Hisashi SEA 3 Safeco Field ND 418 111.7 23.2 109.7 68 1 -1 0 418 30
06/10/16 Video View Rua, Ryan TEX Iwakuma, Hisashi SEA 7 Safeco Field JE/L 376 99.9 37.0 102.2 138 8 -4 0 372 11
06/10/16 Video View Moreland, Mitch TEX Iwakuma, Hisashi SEA 7 Safeco Field ND 456 114.0 25.1 75.5 93 2 -2 0 456 30
06/10/16 Video View Moreland, Mitch TEX Cishek, Steve SEA 9 Safeco Field PL 408 106.7 22.3 79.9 67 1 -1 0 407 24
06/11/16 Video View Fielder, Prince TEX Cishek, Steve SEA 9 Safeco Field ND 407 105.9 27.0 72.6 91 -4 -1 0 413 30
06/11/16 Video View Odor, Rougned TEX Montgomery, Mike SEA 11 Safeco Field ND 440 109.5 25.3 82.4 101 -5 -1 0 447 30
06/12/16 Video View Moreland, Mitch TEX Miley, Wade SEA 4 Safeco Field JE 398 101.9 24.9 100.2 72 3 0 0 395 7
05/09/16 Video View Dickerson, Corey TB Hernandez, Felix SEA 4 Safeco Field JE 368 96.3 30.4 109.5 86 4 -1 0 364 7
05/09/16 Video View Longoria, Evan TB Hernandez, Felix SEA 5 Safeco Field PL 417 103.6 25.0 93.7 84 1 0 0 417 20
05/10/16 Video View Pearce, Steve TB Miley, Wade SEA 2 Safeco Field PL 371 100.7 32.3 122.1 95 -3 0 0 373 30
05/10/16 Video View Pearce, Steve TB Miley, Wade SEA 4 Safeco Field PL 399 102.7 27.0 105.2 84 0 0 0 399 30
05/10/16 Video View Souza Jr., Steven TB Miley, Wade SEA 7 Safeco Field ND 421 106.4 27.3 106.1 92 2 0 0 419 30
05/11/16 Video View Dickerson, Corey TB Walker, Taijuan SEA 6 Safeco Field JE 407 103.4 23.7 95.6 71 1 1 0 406 12
05/11/16 Video View Kiermaier, Kevin TB Vincent, Nick SEA 9 Safeco Field PL 430 109.8 23.0 79.4 72 0 1 0 430 29
06/25/16 Video View Diaz, Aledmys STL Karns, Nathan SEA 5 Safeco Field PL 390 104.0 24.3 108.2 67 4 0 0 386 24
06/26/16 Video View Carpenter, Matt STL Roach, Donn SEA 6 Safeco Field PL 392 98.3 30.3 76.5 91 7 1 0 384 22
06/26/16 Video View Gyorko, Jedd STL Vincent, Nick SEA 7 Safeco Field PL 422 104.0 25.8 92.7 92 -1 0 0 423 26
06/26/16 Video View Pham, Tommy STL Vincent, Nick SEA 7 Safeco Field JE/L 355 94.2 30.5 72.9 87 -3 1 0 357 3
06/26/16 Video View Holliday, Matt STL Diaz, Edwin SEA 8 Safeco Field PL 412 101.5 26.3 88.4 87 2 1 0 409 14
06/26/16 Video View Pham, Tommy STL Nuno, Vidal SEA 9 Safeco Field JE 360 109.7 21.2 128.8 48 0 1 0 360 27
06/26/16 Video View Carpenter, Matt STL Nuno, Vidal SEA 9 Safeco Field PL 409 102.8 26.6 78.7 81 3 1 0 405 28
04/11/16 Video View Cruz, Nelson SEA Kela, Keone TEX 8 Safeco Field JE 401 102.4 23.4 85.9 71 -1 -1 0 402 4
04/13/16 Video View Cano, Robinson SEA Griffin, A.J. TEX 5 Safeco Field ND 392 103.2 29.8 69.1 98 -3 -2 0 398 30
04/13/16 Video View Lee, Dae-Ho SEA Diekman, Jake TEX 10 Safeco Field JE 371 98.8 26.9 109.4 70 3 -1 0 368 13
04/08/16 Video View Lee, Dae-Ho SEA Surkamp, Eric OAK 5 Safeco Field PL 409 103.9 29.4 93.8 122 -13 -2 0 426 29
04/09/16 Video View Iannetta, Chris SEA Hill, Rich OAK 2 Safeco Field PL 412 102.0 27.2 97.1 89 3 0 0 409 21
04/25/16 Video View Martin, Leonys SEA Fister, Doug HOU 3 Safeco Field PL 358 99.0 35.3 62.9 113 -2 -4 0 364 30
04/25/16 Video View Seager, Kyle SEA Fister, Doug HOU 4 Safeco Field PL 399 100.8 28.8 81.6 100 -1 -2 0 403 25
04/26/16 Video View Cano, Robinson SEA Feliz, Michael HOU 7 Safeco Field JE 401 104.6 21.0 86.1 65 1 0 0 400 2
04/27/16 Video View Cano, Robinson SEA Mchugh, Collin HOU 1 Safeco Field JE 362 104.5 22.1 68.2 54 0 0 0 363 9
04/27/16 Video View Lind, Adam SEA Sipp, Tony HOU 6 Safeco Field PL 419 107.7 24.7 76.7 82 -1 -1 0 421 29
04/29/16 Video View Smith, Seth SEA Medlen, Kris KC 6 Safeco Field JE 337 98.5 39.9 68.0 142 3 -5 0 339 5
04/30/16 Video View Smith, Seth SEA Ventura, Yordano KC 1 Safeco Field PL 419 104.5 27.6 83.3 104 -5 -1 0 425 30
04/30/16 Video View Seager, Kyle SEA Ventura, Yordano KC 1 Safeco Field PL 391 109.0 21.6 72.1 58 0 0 0 391 25
05/09/16 Video View Marte, Ketel SEA Geltz, Steven TB 6 Safeco Field JE 391 99.4 27.4 82.1 89 -2 -1 0 394 17
05/10/16 Video View Gutierrez, Franklin SEA Smyly, Drew TB 1 Safeco Field PL 401 103.7 24.6 78.4 74 0 0 0 401 26
05/10/16 Video View Lee, Dae-Ho SEA Smyly, Drew TB 4 Safeco Field PL 365 99.5 26.3 67.2 67 1 0 0 364 14
05/11/16 Video View Cruz, Nelson SEA Archer, Chris TB 3 Safeco Field PL 403 112.3 21.0 108.6 56 1 1 0 402 30
05/11/16 Video View Iannetta, Chris SEA Geltz, Steven TB 11 Safeco Field PL 403 98.6 30.5 83.3 97 8 2 0 393 10
05/13/16 Video View Cruz, Nelson SEA Tropeano, Nick LAA 5 Safeco Field JE 385 100.1 26.6 77.2 82 -2 0 0 387 22
05/13/16 Video View Iannetta, Chris SEA Mahle, Greg LAA 7 Safeco Field JE 373 108.7 20.8 111.9 51 1 0 0 372 13
05/14/16 Video View Lind, Adam SEA Chacin, Jhoulys LAA 2 Safeco Field JE 402 101.6 24.7 94.6 78 0 -1 0 403 5
05/24/16 Video View Cano, Robinson SEA Axford, John OAK 8 Safeco Field JE 395 101.0 24.6 83.8 77 0 0 0 396 7
05/24/16 Video View Martin, Leonys SEA Madson, Ryan OAK 9 Safeco Field PL 397 101.8 30.6 77.5 110 -3 -2 0 403 29
05/25/16 Video View Lind, Adam SEA Neal, Zach OAK 2 Safeco Field PL 353 95.0 32.8 67.6 95 0 -2 0 355 15
05/25/16 Video View Lind, Adam SEA Neal, Zach OAK 3 Safeco Field PL 394 100.9 31.1 72.3 101 5 -2 0 391 30
05/25/16 Video View Cruz, Nelson SEA Triggs, Andrew OAK 7 Safeco Field ND 417 106.1 28.4 107.5 96 2 -2 0 417 30
05/25/16 Video View Cano, Robinson SEA Triggs, Andrew OAK 8 Safeco Field PL 382 103.1 27.7 62.6 77 1 -1 0 382 29
05/27/16 Video View Gutierrez, Franklin SEA Dean, Pat MIN 1 Safeco Field PL 353 95.3 32.7 66.3 94 0 -2 0 355 15
05/28/16 Video View Aoki, Nori SEA Hughes, Phil MIN 1 Safeco Field JE 365 95.7 30.3 73.9 89 0 -1 0 366 6
05/28/16 Video View Sardinas, Luis SEA Rogers, Taylor MIN 6 Safeco Field PL 364 100.2 28.1 119.6 73 0 -1 0 365 27
05/29/16 Video View Cano, Robinson SEA Nolasco, Ricky MIN 1 Safeco Field JE 367 106.8 21.2 69.1 51 0 -1 0 368 9
05/29/16 Video View Gutierrez, Franklin SEA Jepsen, Kevin MIN 9 Safeco Field JE 396 99.6 32.0 86.4 117 0 -2 0 399 6
05/30/16 Video View Seager, Kyle SEA Cashner, Andrew SD 6 Safeco Field JE/L 389 98.1 33.1 83.5 116 2 0 0 387 10
05/30/16 Video View Lee, Dae-Ho SEA Maurer, Brandon SD 8 Safeco Field JE 402 102.6 30.2 97.3 119 0 0 0 402 20
05/31/16 Video View Seager, Kyle SEA Shields, James SD 2 Safeco Field PL 350 94.0 37.8 61.0 107 17 1 0 333 3
05/31/16 Video View Smith, Seth SEA Shields, James SD 3 Safeco Field JE 378 97.4 28.4 75.7 79 4 1 0 374 5
05/31/16 Video View Gutierrez, Franklin SEA Perdomo, Luis SD 4 Safeco Field PL 356 94.7 32.7 61.0 84 9 1 0 346 17
05/31/16 Video View Lind, Adam SEA Perdomo, Luis SD 5 Safeco Field PL 425 105.7 24.4 84.5 78 1 1 0 424 26
05/31/16 Video View Smith, Seth SEA Perdomo, Luis SD 5 Safeco Field PL 409 103.6 24.2 97.8 76 2 0 0 407 19
06/07/16 Video View Cruz, Nelson SEA Anderson, Cody CLE 1 Safeco Field PL 401 102.8 31.5 97.3 126 -13 1 0 413 30
06/07/16 Video View Cruz, Nelson SEA Manship, Jeff CLE 5 Safeco Field PL 434 109.6 20.7 91.7 71 2 1 0 432 26
06/08/16 Video View Iannetta, Chris SEA Carrasco, Carlos CLE 3 Safeco Field JE/L 364 95.1 36.8 109.1 114 18 -2 0 348 2
06/08/16 Video View Iannetta, Chris SEA Carrasco, Carlos CLE 5 Safeco Field ND 451 111.7 27.2 108.3 93 9 -2 0 442 30
06/09/16 Video View Cano, Robinson SEA Tomlin, Josh CLE 1 Safeco Field JE 422 106.9 21.5 90.2 71 1 0 0 422 24
06/09/16 Video View Lind, Adam SEA Tomlin, Josh CLE 7 Safeco Field PL 419 106.6 24.1 79.0 75 3 -1 0 417 28
06/09/16 Video View Cano, Robinson SEA Shaw, Bryan CLE 8 Safeco Field ND 417 110.5 22.6 75.1 67 0 0 0 418 29
06/10/16 Video View Lee, Dae-Ho SEA Holland, Derek TEX 2 Safeco Field JE 409 101.0 28.3 93.2 98 1 -2 0 410 18
06/10/16 Video View Lee, Dae-Ho SEA Holland, Derek TEX 4 Safeco Field JE 403 102.0 24.6 95.3 78 0 -1 0 404 12
06/10/16 Video View Seager, Kyle SEA Holland, Derek TEX 4 Safeco Field PL 386 101.9 28.1 69.1 85 -1 -2 0 388 30
06/11/16 Video View Lind, Adam SEA Lewis, Colby TEX 5 Safeco Field PL 400 102.7 28.3 103.1 97 -4 -1 -1 406 30
06/12/16 Video View Martin, Leonys SEA Hamels, Cole TEX 5 Safeco Field PL 401 99.5 31.9 77.6 103 11 0 0 390 25
06/24/16 Video View Lind, Adam SEA Rosenthal, Trevor STL 9 Safeco Field ND 403 103.8 28.4 72.2 92 0 -1 0 404 30
06/26/16 Video View Cruz, Nelson SEA Garcia, Jaime STL 3 Safeco Field JE/L 395 98.4 27.5 85.4 84 3 0 0 392 3
06/26/16 Video View Gutierrez, Franklin SEA Siegrist, Kevin STL 6 Safeco Field PL 396 101.9 32.2 103.9 119 -5 2 0 399 30
06/28/16 Video View Cruz, Nelson SEA Niese, Jonathon PIT 5 Safeco Field ND 439 115.2 28.1 124.4 91 2 1 0 437 30
06/30/16 Video View Smith, Seth SEA Tillman, Chris BAL 5 Safeco Field PL 374 104.9 24.6 61.0 61 0 0 0 373 28
07/01/16 Video View Smith, Seth SEA Gausman, Kevin BAL 1 Safeco Field ND 424 106.5 29.6 69.5 97 9 1 0 415 30
07/01/16 Video View Seager, Kyle SEA Gausman, Kevin BAL 6 Safeco Field ND 422 107.9 25.6 73.9 81 1 0 0 421 30
07/01/16 Video View Lee, Dae-Ho SEA Roe, Chaz BAL 8 Safeco Field PL 382 103.3 28.5 119.8 80 0 -1 0 383 30
07/02/16 Video View Cruz, Nelson SEA Wilson, Tyler BAL 1 Safeco Field ND 457 109.9 27.6 102.3 101 11 1 0 445 30
07/02/16 Video View Zunino, Mike SEA Wilson, Tyler BAL 2 Safeco Field JE 372 110.5 20.9 119.7 49 1 0 0 371 19
07/02/16 Video View Smith, Seth SEA Wilson, Tyler BAL 4 Safeco Field ND 433 105.1 30.2 78.7 107 11 0 0 422 29
07/02/16 Video View Lind, Adam SEA Worley, Vance BAL 6 Safeco Field PL 418 108.2 22.9 101.1 72 0 0 0 418 30
07/02/16 Video View Zunino, Mike SEA Givens, Mychal BAL 6 Safeco Field PL 357 99.8 27.3 120.8 68 0 0 0 358 25
07/03/16 Video View Smith, Seth SEA Jimenez, Ubaldo BAL 3 Safeco Field JE 400 104.4 22.3 83.0 64 -1 0 0 401 14
07/18/16 Video View Lind, Adam SEA Robertson, David CHW 9 Safeco Field JE/L 391 98.6 28.5 78.9 85 5 0 0 386 10
07/19/16 Video View Cano, Robinson SEA Quintana, Jose CHW 4 Safeco Field JE 396 100.6 27.4 76.6 80 4 0 0 391 21
07/20/16 Video View Martin, Leonys SEA Gonzalez, Miguel CHW 2 Safeco Field PL 364 95.4 33.8 70.7 101 5 1 0 359 15
07/20/16 Video View Zunino, Mike SEA Duke, Zach CHW 7 Safeco Field ND 401 104.0 33.3 112.0 118 2 2 0 396 30
07/20/16 Video View Lind, Adam SEA Jones, Nate CHW 8 Safeco Field JE 357 98.3 27.1 118.0 66 3 1 0 353 4
07/20/16 Video View Martin, Leonys SEA Jennings, Dan CHW 11 Safeco Field PL/L 378 95.5 34.1 75.1 103 13 2 0 363 1
08/02/16 Video View Zunino, Mike SEA Price, David BOS 8 Safeco Field PL 393 109.4 22.1 111.0 57 1 -1 0 392 30
08/02/16 Video View Cano, Robinson SEA Abad, Fernando BOS 8 Safeco Field PL 398 99.9 31.2 75.7 100 9 -2 0 390 26
08/03/16 Video View Cruz, Nelson SEA Porcello, Rick BOS 2 Safeco Field ND 428 112.6 26.4 115.6 87 -3 1 0 431 30
08/03/16 Video View Zunino, Mike SEA Porcello, Rick BOS 6 Safeco Field PL 429 104.0 28.8 89.1 108 3 -1 0 427 27
08/03/16 Video View Lind, Adam SEA Porcello, Rick BOS 7 Safeco Field PL 363 99.3 32.4 63.0 99 -7 0 0 371 30
08/04/16 Video View O'Malley, Shawn SEA Pomeranz, Drew BOS 5 Safeco Field ND 405 104.3 31.7 108.4 114 -1 0 0 406 30
08/05/16 Video View Zunino, Mike SEA Lincecum, Tim LAA 1 Safeco Field PL 383 100.0 29.6 105.7 97 -6 0 0 389 30
08/06/16 Video View Gutierrez, Franklin SEA Skaggs, Tyler LAA 5 Safeco Field PL 403 107.4 23.4 106.2 69 0 -1 -1 404 30
08/06/16 Video View Heredia, Guillermo SEA Skaggs, Tyler LAA 3 Safeco Field PL 380 102.1 31.7 111.8 109 -10 0 0 391 30
08/06/16 Video View O'Malley, Shawn SEA Guerra, Deolis LAA 7 Safeco Field PL 365 96.6 31.7 72.0 98 -3 0 0 368 20
08/09/16 Video View Seager, Kyle SEA Wilson, Justin DET 8 Safeco Field PL 391 98.8 33.0 76.9 110 8 -1 0 383 19
08/10/16 Video View Cano, Robinson SEA Verlander, Justin DET 1 Safeco Field PL 380 99.9 29.1 115.4 80 7 0 0 373 22
08/10/16 Video View Cruz, Nelson SEA Wilson, Justin DET 8 Safeco Field PL 418 103.6 25.8 92.8 92 -1 0 0 420 26
08/19/16 Video View Seager, Kyle SEA Suter, Brent MIL 4 Safeco Field PL 386 100.4 29.9 71.3 94 -3 2 0 387 29
08/19/16 Video View Cano, Robinson SEA Suter, Brent MIL 5 Safeco Field PL 361 99.8 26.3 64.0 66 -1 1 0 361 18
08/19/16 Video View Lind, Adam SEA Anderson, Chase MIL 8 Safeco Field ND 384 108.7 24.0 55.5 60 1 1 0 381 30
08/20/16 Video View Zunino, Mike SEA Peralta, Wily MIL 7 Safeco Field ND 436 113.6 20.5 98.6 64 0 1 0 435 30
08/20/16 Video View Martin, Leonys SEA Peralta, Wily MIL 7 Safeco Field JE 414 104.8 22.5 88.1 69 0 0 0 414 18
08/22/16 Video View Seager, Kyle SEA Pineda, Michael NYY 4 Safeco Field PL 418 105.7 22.1 88.7 73 1 0 0 417 21
08/22/16 Video View Zunino, Mike SEA Swarzak, Anthony NYY 6 Safeco Field PL 352 95.9 33.3 66.8 101 -5 -1 0 357 22
08/22/16 Video View Cruz, Nelson SEA Yates, Kirby NYY 8 Safeco Field JE 346 95.5 31.3 118.1 85 -3 -1 0 350 16
05/31/16 Video View Jankowski, Travis SD Iwakuma, Hisashi SEA 6 Safeco Field PL 421 103.1 25.7 90.0 88 2 1 0 418 26
05/31/16 Video View Kemp, Matt SD Iwakuma, Hisashi SEA 6 Safeco Field PL 395 104.6 25.4 110.8 70 3 0 0 391 30
05/31/16 Video View Sanchez, Hector SD Iwakuma, Hisashi SEA 7 Safeco Field JE 394 105.1 22.8 77.1 60 -1 0 0 394 21
06/29/16 Video View Freese, David PIT Miley, Wade SEA 2 Safeco Field PL 345 94.1 34.5 58.5 92 4 1 0 341 16
04/08/16 Video View Reddick, Josh OAK Walker, Taijuan SEA 5 Safeco Field PL 356 96.7 29.7 71.7 91 -10 -1 0 367 21
04/08/16 Video View Coghlan, Chris OAK Cishek, Steve SEA 9 Safeco Field PL 371 102.0 27.1 65.2 78 -5 -1 0 378 29
04/09/16 Video View Reddick, Josh OAK Karns, Nathan SEA 5 Safeco Field PL 411 102.9 29.6 76.2 100 5 -1 0 407 29
04/10/16 Video View Semien, Marcus OAK Peralta, Joel SEA 8 Safeco Field JE/L 345 95.6 40.3 116.1 127 22 -4 0 325 0
04/10/16 Video View Crisp, Coco OAK Vincent, Nick SEA 10 Safeco Field PL 386 98.9 32.6 68.6 98 12 -2 0 375 25
05/23/16 Video View Vogt, Stephen OAK Walker, Taijuan SEA 7 Safeco Field PL 370 102.9 25.0 65.2 65 -1 -1 0 372 25
05/24/16 Video View Crisp, Coco OAK Karns, Nathan SEA 3 Safeco Field PL 363 97.8 28.9 65.7 77 2 -1 0 362 20
05/25/16 Video View Davis, Khris OAK Iwakuma, Hisashi SEA 2 Safeco Field JE 392 98.9 29.6 81.4 98 1 -1 0 393 11
08/22/16 Video View Sanchez, Gary NYY Martin, Cody SEA 1 Safeco Field JE 387 104.8 22.8 105.1 61 1 0 0 386 10
08/22/16 Video View Castro, Starlin NYY Martin, Cody SEA 2 Safeco Field PL 406 103.6 27.2 107.2 84 5 0 0 401 30
08/22/16 Video View Sanchez, Gary NYY Martin, Cody SEA 6 Safeco Field PL 425 108.6 22.1 97.6 71 2 0 0 423 27
08/22/16 Video View Castro, Starlin NYY Martin, Cody SEA 6 Safeco Field PL 420 103.8 25.0 88.8 84 1 0 0 420 26
08/23/16 Video View Ellsbury, Jacoby NYY Walker, Taijuan SEA 5 Safeco Field PL 395 100.7 28.6 79.4 97 -5 0 0 399 26
08/24/16 Video View Sanchez, Gary NYY Iwakuma, Hisashi SEA 1 Safeco Field ND 412 107.4 32.0 110.4 122 -7 3 0 417 30
05/27/16 Video View Sano, Miguel MIN Hernandez, Felix SEA 2 Safeco Field PL 414 105.5 32.3 102.8 128 0 -3 0 417 30
05/27/16 Video View Mauer, Joe MIN Peralta, Joel SEA 7 Safeco Field JE 388 100.3 27.1 103.8 82 0 -1 0 388 26
05/28/16 Video View Sano, Miguel MIN Miley, Wade SEA 1 Safeco Field ND 424 109.9 27.4 112.4 92 0 -2 0 426 30
05/28/16 Video View Mauer, Joe MIN Miley, Wade SEA 5 Safeco Field JE 357 95.4 31.9 110.9 93 0 -1 0 359 11
05/28/16 Video View Nunez, Eduardo MIN Miley, Wade SEA 5 Safeco Field ND 411 109.6 27.5 120.1 84 0 -2 0 412 30
05/29/16 Video View Grossman, Robbie MIN Walker, Taijuan SEA 2 Safeco Field JE 390 99.4 28.2 79.3 90 0 -1 0 392 19
05/29/16 Video View Sano, Miguel MIN Walker, Taijuan SEA 4 Safeco Field PL 364 97.8 35.0 108.7 118 0 -3 0 367 19
05/29/16 Video View Mauer, Joe MIN Walker, Taijuan SEA 4 Safeco Field JE 370 99.7 26.2 109.3 71 0 -1 0 370 15
08/19/16 Video View Carter, Chris MIL LeBlanc, Wade SEA 5 Safeco Field ND 456 111.8 21.8 90.1 80 0 1 0 455 30
08/19/16 Video View Villar, Jonathan MIL LeBlanc, Wade SEA 6 Safeco Field PL 381 104.1 26.9 119.9 72 0 1 0 381 30
08/19/16 Video View Broxton, Keon MIL LeBlanc, Wade SEA 6 Safeco Field JE 358 111.3 19.9 126.5 44 0 1 0 357 14
08/21/16 Video View Broxton, Keon MIL Miranda, Ariel SEA 4 Safeco Field JE/L 361 96.9 40.2 108.6 136 26 0 0 335 0
08/21/16 Video View Broxton, Keon MIL Wilhelmsen, Tom SEA 9 Safeco Field ND 420 105.5 29.5 107.5 101 6 0 0 415 30
08/21/16 Video View Carter, Chris MIL Wilhelmsen, Tom SEA 9 Safeco Field JE/L 392 97.8 28.1 83.9 84 4 0 0 388 1
05/13/16 Video View Cron, C.J. LAA Peralta, Joel SEA 8 Safeco Field PL 351 94.8 32.7 62.4 88 3 0 0 348 19
05/14/16 Video View Calhoun, Kole LAA Peralta, Joel SEA 7 Safeco Field PL 356 96.9 29.5 63.6 78 0 -1 0 356 16
05/14/16 Video View Giavotella, Johnny LAA Iwakuma, Hisashi SEA 7 Safeco Field JE 345 95.9 36.7 116.0 114 0 -2 0 347 13
05/14/16 Video View Trout, Mike LAA Peralta, Joel SEA 7 Safeco Field ND 395 105.2 27.1 114.6 80 0 -1 0 396 30
05/14/16 Video View Pujols, Albert LAA Cishek, Steve SEA 9 Safeco Field ND 397 108.7 26.0 122.3 72 0 -1 0 397 30
08/05/16 Video View Trout, Mike LAA Hernandez, Felix SEA 1 Safeco Field ND 406 106.1 30.2 110.0 109 -9 1 0 414 30
08/05/16 Video View Bandy, Jett LAA Hernandez, Felix SEA 5 Safeco Field PL 397 103.3 26.6 104.7 87 -4 0 0 402 30
08/06/16 Video View Trout, Mike LAA Walker, Taijuan SEA 1 Safeco Field ND 440 109.4 25.4 99.5 97 -2 0 0 443 30
05/01/16 Video View Hosmer, Eric KC Nuno, Vidal SEA 8 Safeco Field JE/L 390 98.4 36.1 83.6 129 11 1 0 377 0
04/27/16 Video View Altuve, Jose HOU Iwakuma, Hisashi SEA 1 Safeco Field PL 375 107.8 22.3 115.7 56 0 -1 0 376 26
07/15/16 Video View Springer, George HOU Paxton, James SEA 1 Safeco Field PL 359 94.3 32.9 63.3 85 12 1 0 346 8
07/15/16 Video View Gonzalez, Marwin HOU Wilhelmsen, Tom SEA 7 Safeco Field ND 407 103.9 28.3 69.7 84 7 0 0 400 30
07/17/16 Video View Altuve, Jose HOU Montgomery, Mike SEA 3 Safeco Field PL 403 104.1 26.0 105.9 79 2 0 0 401 30
07/17/16 Video View Gomez, Carlos HOU Karns, Nathan SEA 7 Safeco Field ND 416 111.8 23.9 113.4 71 -1 0 0 416 30
08/09/16 Video View Cabrera, Miguel DET LeBlanc, Wade SEA 3 Safeco Field PL 388 108.4 22.3 111.1 57 1 -1 0 388 29
08/09/16 Video View Martinez, J.D. DET LeBlanc, Wade SEA 5 Safeco Field PL 356 93.6 34.8 67.1 97 12 -1 0 345 1
08/09/16 Video View Martinez, Victor DET Miranda, Ariel SEA 15 Safeco Field ND 404 104.4 28.8 112.5 89 5 -1 0 400 30
06/06/16 Video View Davis, Rajai CLE Paxton, James SEA 5 Safeco Field PL 358 96.7 36.3 112.2 118 3 2 0 354 8
06/07/16 Video View Chisenhall, Lonnie CLE Benoit, Joaquin SEA 8 Safeco Field PL 383 100.7 29.4 68.6 88 0 0 0 383 30
06/09/16 Video View Naquin, Tyler CLE Benoit, Joaquin SEA 8 Safeco Field JE 358 93.7 32.0 68.6 85 10 -2 0 350 1
07/18/16 Video View Anderson, Tim CHW LeBlanc, Wade SEA 1 Safeco Field ND 426 110.8 27.4 118.5 83 7 0 0 420 30
07/18/16 Video View Frazier, Todd CHW LeBlanc, Wade SEA 4 Safeco Field PL 428 108.2 21.4 89.8 68 -2 0 0 429 27
07/19/16 Video View Lawrie, Brett CHW Miley, Wade SEA 2 Safeco Field PL 400 110.6 22.8 114.5 59 3 0 0 398 30
07/19/16 Video View Cabrera, Melky CHW Miley, Wade SEA 7 Safeco Field JE 367 105.4 22.8 116.9 54 2 0 0 365 11
07/19/16 Video View Frazier, Todd CHW Benoit, Joaquin SEA 9 Safeco Field PL 398 102.8 25.9 105.0 78 2 0 0 396 28
07/20/16 Video View Frazier, Todd CHW Hernandez, Felix SEA 1 Safeco Field ND 435 108.9 28.6 109.9 99 7 1 0 428 30
08/01/16 Video View Hill, Aaron BOS Paxton, James SEA 8 Safeco Field JE 370 105.0 23.1 114.0 57 0 0 0 370 19
08/01/16 Video View Betts, Mookie BOS Cishek, Steve SEA 9 Safeco Field JE 369 106.7 21.8 112.9 53 0 0 0 370 13
08/02/16 Video View Ramirez, Hanley BOS LeBlanc, Wade SEA 4 Safeco Field ND 456 110.3 26.8 101.5 96 8 -1 0 448 30
08/04/16 Video View Shaw, Travis BOS Miranda, Ariel SEA 2 Safeco Field PL 385 98.3 29.1 74.7 84 5 0 0 380 24
06/30/16 Video View Kim, Hyun Soo BAL Walker, Taijuan SEA 7 Safeco Field PL 378 103.6 26.0 62.1 67 2 0 0 376 29
07/01/16 Video View Davis, Chris BAL LeBlanc, Wade SEA 2 Safeco Field JE/L 400 99.1 32.8 96.5 115 8 1 0 392 2
07/02/16 Video View Davis, Chris BAL Karns, Nathan SEA 7 Safeco Field PL 412 107.6 21.0 96.8 66 1 -1 0 411 19
07/03/16 Video View Trumbo, Mark BAL Iwakuma, Hisashi SEA 4 Safeco Field ND 416 110.0 32.8 119.6 120 0 -1 0 417 30


About HitTracker | Contact Us
© 2006-2016 HitTrackerOnline